createdAt,value
2022-08-17T00:03:34.032Z,96594.72
2022-08-17T00:08:37.665Z,96592.69
2022-08-17T00:14:01.838Z,96585.72
2022-08-17T00:19:08.661Z,96587.19
2022-08-17T00:24:10.880Z,96583.75
2022-08-17T00:29:20.118Z,96590.13
2022-08-17T00:34:22.172Z,96590.34
2022-08-17T00:39:23.908Z,96585.16
2022-08-17T00:44:30.242Z,96584.34
2022-08-17T00:49:33.006Z,96572.44
2022-08-17T00:54:41.822Z,96573.53
2022-08-17T00:59:47.094Z,96577.78
2022-08-17T01:05:03.893Z,96581.97
2022-08-17T01:10:58.953Z,96573.50
2022-08-17T01:15:37.408Z,96574.34
2022-08-17T01:20:48.550Z,96576.81
2022-08-17T01:25:54.316Z,96580.72
2022-08-17T01:30:57.755Z,96588.69
2022-08-17T01:36:01.175Z,96580.88
2022-08-17T01:41:11.713Z,96588.69
2022-08-17T01:46:34.584Z,96576.78
2022-08-17T01:51:37.412Z,96577.91
2022-08-17T01:56:40.586Z,96570.25
2022-08-17T02:01:43.613Z,96573.63
2022-08-17T02:06:53.138Z,96562.44
2022-08-17T02:11:57.750Z,96562.44
2022-08-17T02:16:59.341Z,96564.09
2022-08-17T02:22:01.283Z,96561.13
2022-08-17T02:27:03.772Z,96551.06
2022-08-17T02:32:05.614Z,96553.66
2022-08-17T02:37:08.537Z,96553.34
2022-08-17T02:42:10.518Z,96545.03
2022-08-17T02:47:12.288Z,96544.56
2022-08-17T02:52:13.919Z,96535.06
2022-08-17T02:57:15.582Z,96518.41
2022-08-17T03:02:17.269Z,96525.22
2022-08-17T03:07:20.239Z,96527.16
2022-08-17T03:12:21.931Z,96531.72
2022-08-17T03:17:23.822Z,96532.09
2022-08-17T03:22:37.337Z,96536.50
2022-08-17T03:27:41.981Z,96543.38
2022-08-17T03:32:47.065Z,96528.25
2022-08-17T03:37:52.432Z,96533.91
2022-08-17T03:43:07.846Z,96531.94
2022-08-17T03:48:29.216Z,96532.44
2022-08-17T03:53:49.520Z,96537.75
2022-08-17T03:58:51.366Z,96555.84
2022-08-17T04:03:52.956Z,96555.47
2022-08-17T04:08:54.580Z,96562.34
2022-08-17T04:13:56.803Z,96564.13
2022-08-17T04:18:58.442Z,96562.84
2022-08-17T04:24:01.105Z,96561.84
2022-08-17T04:29:02.766Z,96570.38
2022-08-17T04:34:04.360Z,96562.88
2022-08-17T04:39:05.991Z,96570.16
2022-08-17T04:44:07.760Z,96570.81
2022-08-17T04:49:11.049Z,96565.19
2022-08-17T04:54:22.533Z,96564.66
2022-08-17T04:59:24.575Z,96568.97
2022-08-17T05:04:34.581Z,96573.09
2022-08-17T05:09:36.955Z,96582.38
2022-08-17T05:14:39.511Z,96586.28
2022-08-17T05:19:41.624Z,96595.94
2022-08-17T05:24:53.448Z,96596.28
2022-08-17T05:29:55.648Z,96594.53
2022-08-17T05:35:00.020Z,96595.66
2022-08-17T05:40:01.945Z,96584.25
2022-08-17T05:45:04.688Z,96585.13
2022-08-17T05:50:09.818Z,96575.16
2022-08-17T05:55:34.223Z,96584.38
2022-08-17T06:01:02.009Z,96588.03
2022-08-17T06:06:25.255Z,96591.53
2022-08-17T06:11:44.709Z,96595.47
2022-08-17T06:16:51.431Z,96601.66
2022-08-17T06:21:54.925Z,96604.63
2022-08-17T06:27:06.546Z,96603.63
2022-08-17T06:32:10.436Z,96614.56
2022-08-17T06:37:21.683Z,96615.34
2022-08-17T06:43:05.024Z,96610.84
2022-08-17T06:48:40.569Z,96602.09
2022-08-17T06:53:59.432Z,96597.69
2022-08-17T06:59:02.282Z,96607.03
2022-08-17T07:04:31.157Z,96605.34
2022-08-17T07:09:37.840Z,96620.63
2022-08-17T07:14:52.797Z,96616.19
2022-08-17T07:20:08.540Z,96619.16
2022-08-17T07:25:16.814Z,96625.59
2022-08-17T07:30:28.431Z,96641.91
2022-08-17T07:35:31.310Z,96649.38
2022-08-17T07:41:05.895Z,96627.47
2022-08-17T07:46:38.221Z,96638.75
2022-08-17T07:51:55.332Z,96637.59
2022-08-17T07:57:08.854Z,96643.81
2022-08-17T08:02:31.106Z,96636.75
2022-08-17T08:07:38.200Z,96634.00
2022-08-17T08:12:45.605Z,96638.72
2022-08-17T08:17:56.013Z,96648.06
2022-08-17T08:23:15.461Z,96644.00
2022-08-17T09:59:54.444Z,96594.97
2022-08-17T10:05:08.773Z,96589.16
2022-08-17T10:10:21.829Z,96596.06
2022-08-17T10:15:34.567Z,96595.25
2022-08-17T10:20:41.870Z,96590.81
2022-08-17T10:25:55.888Z,96581.53
2022-08-17T10:31:33.218Z,96567.00
2022-08-17T10:36:37.814Z,96573.78
2022-08-17T10:41:44.239Z,96562.91
2022-08-17T10:47:15.620Z,96570.56
2022-08-17T10:52:20.243Z,96579.78
2022-08-17T10:57:33.851Z,96577.34
2022-08-17T11:03:15.280Z,96568.41
2022-08-17T11:08:44.647Z,96586.84
2022-08-17T11:14:10.982Z,96586.03
2022-08-17T11:20:04.562Z,96591.63
2022-08-17T11:25:15.929Z,96581.84
2022-08-17T11:30:40.855Z,96579.34
2022-08-17T11:35:55.231Z,96581.72
2022-08-17T11:41:15.481Z,96577.22
2022-08-17T11:46:51.784Z,96579.06
2022-08-17T11:52:11.511Z,96566.28
2022-08-17T11:57:27.088Z,96564.88
2022-08-17T12:02:38.801Z,96576.53
2022-08-17T12:07:54.674Z,96578.00
2022-08-17T12:12:57.388Z,96578.81
2022-08-17T12:17:59.253Z,96570.94
2022-08-17T12:23:18.510Z,96582.88
2022-08-17T12:28:25.837Z,96578.81
2022-08-17T12:55:12.785Z,96565.63
2022-08-17T13:00:19.923Z,96561.09
2022-08-17T13:05:36.006Z,96548.81
2022-08-17T13:10:38.027Z,96553.75
2022-08-17T13:15:44.458Z,96535.13
2022-08-17T13:20:55.084Z,96534.31
2022-08-17T13:26:04.697Z,96518.78
2022-08-17T13:31:28.226Z,96522.63
2022-08-17T13:36:32.065Z,96515.28
2022-08-17T13:41:37.688Z,96522.78
2022-08-17T13:46:39.397Z,96508.38
2022-08-17T13:51:46.184Z,96501.78
2022-08-17T13:56:59.570Z,96507.19
2022-08-17T14:02:02.690Z,96495.28
2022-08-17T14:07:13.421Z,96495.81
2022-08-17T14:12:19.977Z,96494.34
2022-08-17T14:17:23.152Z,96498.97
2022-08-17T14:22:30.961Z,96490.81
2022-08-17T14:27:34.006Z,96482.47
2022-08-17T14:32:48.396Z,96470.47
2022-08-17T14:37:51.395Z,96470.88
2022-08-17T14:42:55.477Z,96453.25
2022-08-17T14:47:57.107Z,96456.56
2022-08-17T14:53:01.433Z,96454.28
2022-08-17T14:58:04.126Z,96444.22
2022-08-17T15:03:05.892Z,96424.19
2022-08-17T15:08:07.838Z,96440.34
2022-08-17T15:13:17.222Z,96438.28
2022-08-17T15:18:18.926Z,96430.31
2022-08-17T15:23:21.803Z,96446.09
2022-08-17T15:28:24.373Z,96446.44
2022-08-17T15:33:30.137Z,96452.53
2022-08-17T15:38:39.375Z,96460.63
2022-08-17T15:43:42.460Z,96457.06
2022-08-17T15:48:46.324Z,96457.69
2022-08-17T15:53:50.946Z,96473.69
2022-08-17T15:58:54.776Z,96467.00
2022-08-17T16:04:04.045Z,96452.78
2022-08-17T16:09:06.630Z,96464.38
2022-08-17T16:14:08.301Z,96459.31
2022-08-17T16:19:09.932Z,96462.50
2022-08-17T16:24:12.672Z,96458.50
2022-08-17T16:29:16.677Z,96453.72
2022-08-17T16:34:18.999Z,96459.66
2022-08-17T16:39:20.714Z,96459.03
2022-08-17T16:44:22.630Z,96462.97
2022-08-17T16:49:37.451Z,96450.59
2022-08-17T16:54:43.621Z,96458.41
2022-08-17T16:59:50.177Z,96443.63
2022-08-17T17:05:01.045Z,96442.09
2022-08-17T17:10:07.626Z,96435.66
2022-08-17T17:15:10.541Z,96428.44
2022-08-17T17:20:17.974Z,96434.94
2022-08-17T17:25:31.731Z,96429.31
2022-08-17T17:30:48.254Z,96426.13
2022-08-17T17:36:00.721Z,96416.88
2022-08-17T17:41:06.859Z,96424.91
2022-08-17T17:46:26.758Z,96424.06
2022-08-17T17:52:08.102Z,96418.81
2022-08-17T17:57:22.225Z,96413.44
2022-08-17T18:02:51.388Z,96412.41
2022-08-17T18:08:11.497Z,96412.44
2022-08-17T18:13:44.358Z,96409.72
2022-08-17T18:18:52.270Z,96401.31
2022-08-17T18:23:59.909Z,96398.78
2022-08-17T18:29:15.797Z,96398.22
2022-08-17T18:34:46.422Z,96405.75
2022-08-17T18:39:49.168Z,96407.31
2022-08-17T18:44:54.898Z,96405.16
2022-08-17T18:50:18.496Z,96411.94
2022-08-17T18:55:28.930Z,96421.91
2022-08-17T19:00:40.317Z,96421.19
2022-08-17T19:05:44.880Z,96425.66
2022-08-17T19:10:53.914Z,96427.19
2022-08-17T19:16:18.030Z,96422.34
2022-08-17T19:21:25.478Z,96427.94
2022-08-17T19:26:54.393Z,96418.09
2022-08-17T19:31:58.440Z,96413.31
2022-08-17T19:37:06.896Z,96405.78
2022-08-17T19:42:33.928Z,96413.84
2022-08-17T19:47:58.642Z,96414.75
2022-08-17T19:53:17.547Z,96422.13
2022-08-17T19:58:25.161Z,96429.66
2022-08-17T20:03:53.379Z,96442.22
2022-08-17T20:09:09.504Z,96442.09
2022-08-17T20:14:19.874Z,96450.66
2022-08-17T20:19:35.292Z,96452.88
2022-08-17T20:24:41.787Z,96454.78
2022-08-17T20:30:05.437Z,96466.56
2022-08-17T20:35:16.847Z,96446.72
2022-08-17T20:40:23.606Z,96459.53
2022-08-17T20:45:43.762Z,96452.34
2022-08-17T20:50:57.378Z,96448.34
2022-08-17T20:55:59.028Z,96440.97
2022-08-17T21:01:13.629Z,96435.56
2022-08-17T21:06:18.598Z,96423.72
2022-08-17T21:12:00.056Z,96435.09
2022-08-17T21:17:17.429Z,96426.25
2022-08-17T21:22:37.391Z,96424.19
2022-08-17T21:28:02.332Z,96427.31
2022-08-17T21:33:27.417Z,96423.75
2022-08-17T21:38:36.208Z,96434.41
2022-08-17T21:43:47.605Z,96435.88
2022-08-17T21:48:54.434Z,96447.44
2022-08-17T21:53:59.967Z,96446.34
2022-08-17T21:59:15.533Z,96437.00
2022-08-17T22:04:24.844Z,96428.59
2022-08-17T22:09:41.323Z,96428.25
2022-08-17T22:14:58.905Z,96435.50
2022-08-17T22:20:08.593Z,96445.75
2022-08-17T22:25:20.657Z,96450.97
2022-08-17T22:30:32.936Z,96475.84
2022-08-17T22:35:41.013Z,96526.09
2022-08-17T22:40:43.986Z,96542.50
2022-08-17T22:45:51.439Z,96539.31
2022-08-17T22:51:12.540Z,96558.09
2022-08-17T22:56:36.160Z,96575.25
2022-08-17T23:01:39.144Z,96639.19
2022-08-17T23:06:42.382Z,96675.31
2022-08-17T23:11:49.809Z,96673.38
2022-08-17T23:16:51.878Z,96690.91
2022-08-17T23:21:56.062Z,96706.63
2022-08-17T23:26:58.945Z,96767.91
2022-08-17T23:32:01.631Z,96757.34
2022-08-17T23:37:04.408Z,96758.84
2022-08-17T23:42:08.668Z,96747.59
2022-08-17T23:47:11.145Z,96757.34
2022-08-17T23:52:15.300Z,96764.03
2022-08-17T23:57:20.890Z,96750.22
